Time;durP1;ratioP1;P1;durP2;ratioP2;P2;SDS_P1;SDS_P2;PMS_P1;PMS_P2;Temp;Humidity;BMP_temperature;BMP_pressure;BME280_temperature;BME280_humidity;BME280_pressure;Samples;Min_cycle;Max_cycle;Signal;HPM_P1;HPM_P2
2023/07/03 00:01:07;;;;;;;11.90;3.10;;;;;;;12.19;87.84;98821.17;105958;1257;69263;-63
2023/07/03 00:03:54;;;;;;;12.40;3.10;;;;;;;12.17;88.07;98821.73;105960;1261;74229;-63
2023/07/03 00:06:41;;;;;;;9.70;2.70;;;;;;;12.14;88.18;98824.31;105813;1257;61034;-63
2023/07/03 00:09:29;;;;;;;9.30;2.70;;;;;;;12.12;88.41;98825.84;105757;1259;61908;-63
2023/07/03 00:12:15;;;;;;;9.90;2.50;;;;;;;12.09;88.52;98830.89;106012;1254;71656;-62
2023/07/03 00:15:03;;;;;;;11.20;2.90;;;;;;;12.07;88.85;98829.55;105991;1254;67402;-62
2023/07/03 00:17:50;;;;;;;9.40;2.80;;;;;;;12.04;88.96;98833.36;106065;1257;73283;-61
2023/07/03 00:20:36;;;;;;;9.30;2.80;;;;;;;12.00;89.08;98826.55;105956;1254;59234;-64
2023/07/03 00:23:25;;;;;;;12.10;2.70;;;;;;;11.95;89.49;98826.83;105783;1253;60509;-65
2023/07/03 00:26:12;;;;;;;10.30;3.00;;;;;;;11.92;89.78;98830.54;106041;1253;72015;-62
2023/07/03 00:28:59;;;;;;;11.60;2.90;;;;;;;11.89;89.97;98830.81;105762;1257;69442;-63
2023/07/03 00:31:45;;;;;;;11.70;3.20;;;;;;;11.88;90.46;98834.28;105780;1254;73298;-61
2023/07/03 00:34:32;;;;;;;10.20;2.80;;;;;;;11.87;90.26;98833.44;105654;1256;59603;-60
2023/07/03 00:37:21;;;;;;;12.50;2.70;;;;;;;11.85;90.53;98831.34;105847;1259;60781;-62
2023/07/03 00:40:10;;;;;;;9.50;2.90;;;;;;;11.84;90.77;98830.77;105770;1253;72817;-61
2023/07/03 00:42:57;;;;;;;9.50;2.80;;;;;;;11.84;90.43;98830.61;105737;1254;69376;-61
2023/07/03 00:45:45;;;;;;;11.70;3.00;;;;;;;11.84;91.04;98832.96;106012;1254;74224;-64
2023/07/03 00:48:33;;;;;;;9.00;3.20;;;;;;;11.84;90.69;98837.83;105637;1254;59974;-63
2023/07/03 00:51:19;;;;;;;10.80;2.70;;;;;;;11.86;90.54;98837.00;105896;1258;60286;-61
2023/07/03 00:54:06;;;;;;;9.40;2.50;;;;;;;11.87;90.17;98832.38;105936;1253;72693;-65
2023/07/03 00:56:54;;;;;;;10.70;2.70;;;;;;;11.87;89.97;98836.11;105995;1257;69206;-62
2023/07/03 00:59:41;;;;;;;9.20;2.90;;;;;;;11.87;89.80;98832.07;105508;1254;73639;-63
2023/07/03 01:02:40;;;;;;;10.20;2.50;;;;;;;11.86;89.66;98835.38;105692;1260;59247;-63
2023/07/03 01:05:32;;;;;;;11.50;3.30;;;;;;;11.84;89.62;98833.92;105767;1254;60701;-62
2023/07/03 01:08:19;;;;;;;11.80;2.80;;;;;;;11.86;89.30;98831.66;105858;1254;72853;-61
2023/07/03 01:11:08;;;;;;;9.30;2.90;;;;;;;11.89;89.06;98836.15;105764;1254;68428;-62
2023/07/03 01:14:00;;;;;;;12.50;2.90;;;;;;;11.92;88.64;98837.07;106056;1257;73097;-62
2023/07/03 01:16:48;;;;;;;10.70;3.20;;;;;;;11.97;88.11;98838.77;105989;1257;60019;-63
2023/07/03 01:19:39;;;;;;;9.40;2.90;;;;;;;12.00;87.85;98839.28;105821;1253;60901;-62
2023/07/03 01:22:31;;;;;;;8.90;3.20;;;;;;;12.05;87.37;98837.58;105546;1253;73611;-63
2023/07/03 01:25:22;;;;;;;9.70;2.60;;;;;;;12.08;87.18;98840.58;105921;1253;69401;-61
2023/07/03 01:28:15;;;;;;;12.70;3.40;;;;;;;12.13;86.83;98837.69;105869;1253;72205;-65
2023/07/03 01:31:07;;;;;;;10.10;2.80;;;;;;;12.15;86.35;98832.46;105976;1257;60093;-63
2023/07/03 01:33:56;;;;;;;13.30;3.10;;;;;;;12.17;86.10;98828.50;105693;1254;60634;-62
2023/07/03 01:36:44;;;;;;;10.20;2.90;;;;;;;12.20;85.81;98824.66;105890;1254;72735;-62
2023/07/03 01:39:31;;;;;;;9.70;2.60;;;;;;;12.21;85.59;98822.52;106136;1253;67194;-62
2023/07/03 01:42:21;;;;;;;11.80;3.00;;;;;;;12.21;85.58;98821.14;105983;1254;73175;-62
2023/07/03 01:45:10;;;;;;;12.30;3.20;;;;;;;12.21;85.58;98827.59;105927;1253;60231;-60
2023/07/03 01:47:57;;;;;;;13.10;2.80;;;;;;;12.20;85.49;98832.25;105828;1252;60827;-63
2023/07/03 01:50:47;;;;;;;8.50;2.50;;;;;;;12.18;85.34;98825.83;105823;1253;73787;-63
2023/07/03 01:53:49;;;;;;;7.50;2.80;;;;;;;12.17;85.40;98824.96;105818;1257;69074;-62
2023/07/03 01:56:41;;;;;;;11.10;3.00;;;;;;;12.14;85.47;98822.77;105690;1257;72876;-63
2023/07/03 01:59:29;;;;;;;10.50;3.10;;;;;;;12.09;85.57;98822.86;106115;1254;60041;-65
2023/07/03 02:02:25;;;;;;;9.90;3.20;;;;;;;12.06;85.78;98825.20;106006;1254;62018;-62
2023/07/03 02:05:18;;;;;;;8.60;2.70;;;;;;;12.03;85.78;98823.73;105950;1253;72851;-60
2023/07/03 02:08:06;;;;;;;9.60;2.80;;;;;;;11.99;85.92;98817.92;105919;1253;69474;-60
2023/07/03 02:10:54;;;;;;;8.70;2.40;;;;;;;11.97;86.13;98818.48;106012;1253;73053;-61
2023/07/03 02:13:41;;;;;;;10.10;2.80;;;;;;;11.94;86.17;98815.56;105927;1254;59273;-62
2023/07/03 02:16:29;;;;;;;12.90;3.10;;;;;;;11.91;86.16;98815.66;105849;1253;60948;-61
2023/07/03 02:19:16;;;;;;;10.70;2.80;;;;;;;11.88;86.40;98813.44;105978;1255;73703;-62
2023/07/03 02:22:03;;;;;;;12.30;3.00;;;;;;;11.87;86.40;98812.52;105955;1257;68505;-60
2023/07/03 02:24:50;;;;;;;8.50;2.80;;;;;;;11.87;86.05;98813.59;105903;1253;71972;-61
2023/07/03 02:27:38;;;;;;;9.10;2.80;;;;;;;11.87;85.88;98811.27;105798;1258;59712;-61
2023/07/03 02:30:25;;;;;;;14.00;3.00;;;;;;;11.87;85.40;98815.52;105801;1257;60663;-63
2023/07/03 02:33:12;;;;;;;9.00;2.40;;;;;;;11.87;85.49;98814.65;105723;1255;73697;-61
2023/07/03 02:36:05;;;;;;;10.80;3.10;;;;;;;11.86;85.45;98812.59;106033;1254;68296;-62
2023/07/03 02:38:52;;;;;;;9.90;3.10;;;;;;;11.88;85.12;98808.33;105885;1257;73351;-60
2023/07/03 02:41:39;;;;;;;7.70;2.40;;;;;;;11.89;85.13;98804.60;106003;1253;59828;-61
2023/07/03 02:44:27;;;;;;;12.20;2.80;;;;;;;11.91;85.11;98805.84;106121;1253;61707;-62
2023/07/03 02:47:14;;;;;;;11.10;3.70;;;;;;;11.92;84.75;98806.98;105899;1257;72693;-61
2023/07/03 02:50:07;;;;;;;9.60;2.90;;;;;;;11.93;84.96;98809.02;105781;1256;68281;-64
2023/07/03 02:52:55;;;;;;;12.60;3.60;;;;;;;11.93;84.90;98805.50;106013;1258;72995;-64
2023/07/03 02:55:42;;;;;;;11.20;3.00;;;;;;;11.95;84.84;98807.35;106077;1257;60278;-63
2023/07/03 02:58:29;;;;;;;11.90;3.00;;;;;;;11.97;84.82;98801.42;105848;1254;61002;-61
2023/07/03 03:01:16;;;;;;;8.80;2.70;;;;;;;11.96;85.05;98807.90;105871;1259;73758;-63
2023/07/03 03:04:04;;;;;;;11.40;3.40;;;;;;;11.97;85.24;98800.30;105755;1256;69436;-65
2023/07/03 03:06:51;;;;;;;9.20;3.10;;;;;;;11.97;85.33;98807.40;105869;1257;73961;-65
2023/07/03 03:09:38;;;;;;;9.00;2.90;;;;;;;11.96;85.52;98802.60;105925;1253;59260;-64
2023/07/03 03:12:25;;;;;;;11.80;3.30;;;;;;;11.95;85.73;98809.39;105968;1253;60755;-63
2023/07/03 03:15:12;;;;;;;9.50;3.20;;;;;;;11.98;85.53;98806.15;105813;1254;72887;-61
2023/07/03 03:17:59;;;;;;;9.40;3.00;;;;;;;11.99;85.58;98799.98;105948;1257;68442;-61
2023/07/03 03:20:46;;;;;;;10.30;3.20;;;;;;;12.01;85.50;98798.98;105930;1257;74161;-61
2023/07/03 03:23:33;;;;;;;8.80;3.10;;;;;;;12.03;85.42;98801.64;105715;1259;60987;-60
2023/07/03 03:26:20;;;;;;;8.50;3.00;;;;;;;12.04;85.47;98800.15;105775;1259;59861;-61
2023/07/03 03:29:07;;;;;;;10.40;3.20;;;;;;;12.06;85.15;98799.21;106046;1254;73064;-65
2023/07/03 03:31:54;;;;;;;10.90;3.60;;;;;;;12.08;85.09;98798.42;105806;1254;68282;-65
2023/07/03 03:34:40;;;;;;;10.10;3.10;;;;;;;12.13;84.79;98801.17;105598;1260;73046;-64
2023/07/03 03:37:28;;;;;;;12.80;3.40;;;;;;;12.16;84.80;98805.80;105755;1253;59145;-63
2023/07/03 03:40:18;;;;;;;11.70;3.50;;;;;;;12.21;84.49;98804.75;105782;1258;59794;-62
2023/07/03 03:43:05;;;;;;;11.00;3.10;;;;;;;12.28;83.96;98808.17;106237;1259;73102;-64
2023/07/03 03:45:58;;;;;;;9.10;2.60;;;;;;;12.34;83.59;98808.36;105866;1258;68224;-64
2023/07/03 03:48:45;;;;;;;9.10;3.60;;;;;;;12.42;83.15;98813.10;105705;1259;74164;-64
2023/07/03 03:51:34;;;;;;;9.10;3.40;;;;;;;12.52;82.63;98810.39;105783;1254;59166;-64
2023/07/03 03:54:21;;;;;;;7.90;3.20;;;;;;;12.63;82.33;98808.54;106024;1256;60787;-62
2023/07/03 03:57:07;;;;;;;9.60;3.00;;;;;;;12.72;81.76;98815.25;106032;1254;72641;-62
2023/07/03 03:59:54;;;;;;;8.10;3.20;;;;;;;12.81;81.15;98815.54;105687;1258;68217;-61
2023/07/03 04:02:41;;;;;;;10.40;3.30;;;;;;;12.86;80.93;98815.86;106113;1254;71912;-64
2023/07/03 04:05:29;;;;;;;8.50;3.00;;;;;;;12.90;80.54;98819.07;105933;1259;59231;-62
2023/07/03 04:08:16;;;;;;;11.60;3.50;;;;;;;12.95;80.14;98818.19;105780;1259;59640;-65
2023/07/03 04:11:03;;;;;;;13.10;3.30;;;;;;;12.99;79.66;98816.14;105736;1256;72889;-64
2023/07/03 04:13:49;;;;;;;11.20;3.30;;;;;;;13.03;78.94;98818.23;105999;1254;68548;-63
2023/07/03 04:16:36;;;;;;;10.00;3.50;;;;;;;13.10;78.62;98817.48;106333;1258;72978;-64
2023/07/03 04:19:28;;;;;;;10.70;3.60;;;;;;;13.18;78.63;98820.64;105697;1254;59231;-62
2023/07/03 04:22:15;;;;;;;12.90;3.30;;;;;;;13.25;78.10;98819.38;107344;1254;61817;-62
2023/07/03 04:25:02;;;;;;;13.40;3.30;;;;;;;13.34;78.04;98817.54;105913;1254;71655;-61
2023/07/03 04:27:49;;;;;;;10.70;3.70;;;;;;;13.46;77.17;98809.34;106285;1254;69390;-64
2023/07/03 04:30:38;;;;;;;11.50;3.30;;;;;;;13.60;76.25;98811.52;105518;1259;71739;-63
2023/07/03 04:33:25;;;;;;;9.50;3.20;;;;;;;13.78;75.53;98808.98;105729;1254;59367;-65
2023/07/03 04:36:13;;;;;;;10.20;3.10;;;;;;;14.00;74.64;98809.56;105499;1257;60495;-65
2023/07/03 04:39:00;;;;;;;10.40;3.40;;;;;;;14.23;72.76;98812.70;105952;1254;73154;-63
2023/07/03 04:41:47;;;;;;;12.30;3.40;;;;;;;14.50;71.89;98813.65;106106;1254;66615;-65
2023/07/03 04:44:33;;;;;;;10.30;3.20;;;;;;;14.74;69.59;98808.66;105763;1254;72142;-64
2023/07/03 04:47:21;;;;;;;9.30;3.40;;;;;;;15.06;68.53;98807.64;105782;1256;59622;-64
2023/07/03 04:50:16;;;;;;;12.60;3.70;;;;;;;15.40;66.39;98802.34;108947;1253;60007;-63
2023/07/03 04:53:03;;;;;;;11.10;3.30;;;;;;;15.93;64.74;98804.38;106458;1253;70759;-61
2023/07/03 04:55:50;;;;;;;10.50;3.60;;;;;;;16.44;62.60;98800.77;107051;1253;69133;-65
2023/07/03 04:58:39;;;;;;;10.20;3.60;;;;;;;16.93;60.45;98800.50;107411;1253;73042;-64
2023/07/03 05:01:26;;;;;;;12.10;2.80;;;;;;;17.25;58.75;98799.69;106847;1256;59237;-61
2023/07/03 05:04:12;;;;;;;9.60;3.40;;;;;;;17.79;57.58;98800.44;105965;1253;60130;-64
2023/07/03 05:06:59;;;;;;;11.00;3.40;;;;;;;18.32;55.99;98798.02;106185;1253;70733;-65
2023/07/03 05:09:45;;;;;;;11.00;3.10;;;;;;;18.81;53.42;98799.53;105553;1254;68615;-65
2023/07/03 05:12:32;;;;;;;9.00;3.20;;;;;;;19.21;51.39;98795.59;105917;1253;74380;-65
2023/07/03 05:15:20;;;;;;;10.60;3.10;;;;;;;19.82;50.81;98795.36;105720;1255;59237;-64
2023/07/03 05:18:06;;;;;;;10.10;3.10;;;;;;;20.37;48.35;98792.94;105901;1260;59360;-64
2023/07/03 05:20:53;;;;;;;9.70;3.40;;;;;;;20.71;46.25;98790.30;105828;1257;72988;-64
2023/07/03 05:23:40;;;;;;;10.70;3.10;;;;;;;21.18;45.34;98794.27;105897;1253;68934;-64
2023/07/03 05:26:26;;;;;;;13.90;3.40;;;;;;;21.78;44.07;98789.66;105837;1254;71958;-65
2023/07/03 05:29:13;;;;;;;12.00;3.40;;;;;;;22.06;41.40;98791.80;105885;1253;59251;-64
2023/07/03 05:32:01;;;;;;;13.80;7.80;;;;;;;22.10;41.31;98794.27;105894;1256;61789;-63
2023/07/03 05:34:48;;;;;;;9.60;3.20;;;;;;;22.75;40.86;98793.42;106062;1253;72655;-65
2023/07/03 05:37:36;;;;;;;9.70;3.10;;;;;;;23.28;38.96;98792.30;105979;1254;68434;-67
2023/07/03 05:40:24;;;;;;;11.60;3.10;;;;;;;23.56;37.74;98794.16;105896;1254;74188;-67
2023/07/03 05:43:13;;;;;;;10.10;3.00;;;;;;;24.01;37.81;98798.66;105721;1254;59442;-66
2023/07/03 05:46:00;;;;;;;9.90;2.70;;;;;;;24.46;37.19;98800.88;105783;1254;61156;-64
2023/07/03 05:48:47;;;;;;;11.80;2.90;;;;;;;24.99;35.85;98797.70;105958;1254;72688;-66
2023/07/03 05:51:34;;;;;;;12.20;3.00;;;;;;;25.55;34.84;98804.49;105555;1257;68171;-68
2023/07/03 05:54:21;;;;;;;9.20;3.10;;;;;;;25.64;33.75;98805.19;105679;1258;72897;-66
2023/07/03 05:57:10;;;;;;;10.30;2.80;;;;;;;25.67;33.52;98796.63;105571;1253;59352;-66
2023/07/03 05:59:59;;;;;;;8.70;2.70;;;;;;;26.09;33.39;98799.59;106017;1253;60674;-69
2023/07/03 06:02:51;;;;;;;10.50;3.10;;;;;;;26.59;33.20;98794.00;105619;1254;72796;-65
2023/07/03 06:05:38;;;;;;;8.40;2.70;;;;;;;26.98;31.41;98796.56;106158;1253;242919;-70
2023/07/03 06:08:25;;;;;;;8.40;2.80;;;;;;;26.88;30.87;98787.80;106050;1257;73260;-69
2023/07/03 06:11:12;;;;;;;11.00;2.80;;;;;;;26.78;30.40;98795.53;106109;1254;59250;-68
2023/07/03 06:13:59;;;;;;;10.30;2.80;;;;;;;26.53;31.12;98790.83;106710;1254;59276;-67
2023/07/03 06:16:48;;;;;;;10.70;3.10;;;;;;;26.70;30.47;98795.11;106605;1253;73454;-68
2023/07/03 06:19:35;;;;;;;8.30;2.20;;;;;;;26.65;30.24;98798.85;106343;1257;68410;-69
2023/07/03 06:22:23;;;;;;;10.40;2.70;;;;;;;26.81;29.81;98795.39;106315;1253;72787;-72
2023/07/03 06:25:10;;;;;;;8.50;2.30;;;;;;;27.03;29.33;98797.88;105897;1253;59336;-68
2023/07/03 06:27:56;;;;;;;10.30;2.70;;;;;;;26.78;29.19;98798.25;106037;1254;60566;-67
2023/07/03 06:30:48;;;;;;;9.40;2.70;;;;;;;27.12;28.90;98789.93;106014;1253;72956;-67
2023/07/03 06:33:38;;;;;;;9.40;2.40;;;;;;;27.67;28.41;98795.70;106020;1253;68772;-69
2023/07/03 06:36:25;;;;;;;10.00;2.60;;;;;;;27.73;27.85;98792.39;105722;1253;72571;-69
2023/07/03 06:39:12;;;;;;;7.20;2.50;;;;;;;27.70;27.54;98797.09;105833;1254;59345;-68
2023/07/03 06:41:59;;;;;;;9.20;2.20;;;;;;;27.88;27.18;98791.58;106050;1253;60871;-69
2023/07/03 06:44:45;;;;;;;7.80;2.40;;;;;;;28.01;26.74;98794.40;105853;1258;71126;-69
2023/07/03 06:47:33;;;;;;;9.30;2.20;;;;;;;28.07;26.63;98796.67;105919;1257;69201;-67
2023/07/03 06:50:19;;;;;;;9.40;2.60;;;;;;;28.00;26.56;98801.05;106134;1253;71529;-68
2023/07/03 06:53:06;;;;;;;10.10;2.60;;;;;;;28.08;26.53;98801.87;106018;1253;59327;-70
2023/07/03 06:55:57;;;;;;;10.00;2.40;;;;;;;27.94;26.65;98795.11;105887;1254;61685;-69
2023/07/03 06:58:47;;;;;;;8.50;2.20;;;;;;;27.77;26.82;98794.79;106173;1258;74016;-68
2023/07/03 07:01:34;;;;;;;9.10;2.50;;;;;;;27.56;26.75;98789.23;105954;1254;66392;-70
2023/07/03 07:04:21;;;;;;;8.90;2.60;;;;;;;27.82;27.02;98786.93;106056;1254;73198;-67
2023/07/03 07:07:08;;;;;;;9.30;2.40;;;;;;;28.38;26.84;98789.61;106078;1255;59573;-69
2023/07/03 07:09:55;;;;;;;8.40;2.40;;;;;;;28.58;26.90;98785.27;105666;1253;61909;-65
2023/07/03 07:12:42;;;;;;;8.70;2.30;;;;;;;28.45;26.83;98788.98;106929;1253;72037;-67
2023/07/03 07:15:28;;;;;;;9.50;2.70;;;;;;;28.62;26.73;98791.88;106074;1252;69938;-64
2023/07/03 07:18:15;;;;;;;10.30;2.90;;;;;;;28.68;26.57;98794.59;105999;1258;73325;-67
2023/07/03 07:21:02;;;;;;;10.40;2.70;;;;;;;28.77;26.60;98790.45;106035;1256;59309;-68
2023/07/03 07:23:58;;;;;;;8.70;2.80;;;;;;;28.47;26.19;98788.88;105666;1253;60910;-66
2023/07/03 07:26:46;;;;;;;9.60;2.80;;;;;;;28.62;26.81;98787.45;105792;1254;73769;-66
2023/07/03 07:29:34;;;;;;;8.40;2.50;;;;;;;29.10;26.46;98787.52;105992;1253;67777;-66
2023/07/03 07:32:24;;;;;;;8.90;2.80;;;;;;;29.39;25.75;98783.38;106026;1260;74295;-67
2023/07/03 07:35:11;;;;;;;9.80;3.00;;;;;;;28.95;26.14;98785.36;106105;1258;59233;-69
2023/07/03 07:37:58;;;;;;;10.00;2.80;;;;;;;28.95;26.07;98781.95;106082;1253;60200;-67
2023/07/03 07:40:45;;;;;;;12.30;2.90;;;;;;;28.43;26.34;98785.73;106668;1257;71714;-67
2023/07/03 07:43:32;;;;;;;9.00;2.80;;;;;;;28.58;26.28;98787.55;106391;1253;68710;-64
2023/07/03 07:46:19;;;;;;;10.10;3.20;;;;;;;28.87;25.79;98787.36;108216;1253;74710;-68
2023/07/03 07:49:06;;;;;;;8.00;2.70;;;;;;;29.13;25.45;98791.67;106693;1254;59349;-67
2023/07/03 07:51:54;;;;;;;8.20;2.30;;;;;;;29.44;24.98;98794.05;106131;1259;60742;-67
2023/07/03 07:54:40;;;;;;;9.00;2.60;;;;;;;29.12;24.95;98795.77;105849;1253;72562;-66
2023/07/03 07:57:29;;;;;;;8.30;2.60;;;;;;;29.12;25.31;98798.41;105969;1253;68748;-65
2023/07/03 08:00:16;;;;;;;9.60;3.10;;;;;;;29.05;25.40;98787.67;106019;1256;72192;-65
2023/07/03 08:03:03;;;;;;;8.10;2.70;;;;;;;29.31;24.99;98779.74;106081;1257;61074;-70
2023/07/03 08:06:01;;;;;;;9.00;2.60;;;;;;;29.41;25.09;98789.20;105806;1253;61154;-68
2023/07/03 08:08:50;;;;;;;10.70;2.80;;;;;;;29.04;24.77;98783.17;105852;1254;72949;-65
2023/07/03 08:11:38;;;;;;;8.40;2.90;;;;;;;28.74;25.23;98774.74;107242;1253;68201;-66
2023/07/03 08:14:26;;;;;;;8.20;2.60;;;;;;;28.62;25.34;98777.55;106017;1253;72697;-63
2023/07/03 08:17:12;;;;;;;9.10;2.90;;;;;;;28.51;25.40;98775.32;105947;1258;59324;-64
2023/07/03 08:19:59;;;;;;;9.50;2.80;;;;;;;28.44;25.11;98778.80;107254;1254;62282;-64
2023/07/03 08:22:47;;;;;;;11.70;2.60;;;;;;;28.72;25.60;98784.55;105520;1254;73870;-66
2023/07/03 08:25:34;;;;;;;9.90;2.40;;;;;;;28.76;25.32;98791.59;106356;1257;69519;-63
2023/07/03 08:28:22;;;;;;;9.00;2.70;;;;;;;28.28;25.63;98796.23;105795;1256;73130;-66
2023/07/03 08:31:08;;;;;;;9.00;2.60;;;;;;;27.91;25.55;98794.13;106233;1258;59356;-63
2023/07/03 08:33:56;;;;;;;10.70;2.60;;;;;;;27.75;26.21;98794.93;105904;1259;59778;-61
2023/07/03 08:36:43;;;;;;;11.80;2.60;;;;;;;27.37;26.15;98792.66;108835;1254;72297;-61
2023/07/03 08:39:33;;;;;;;8.20;2.60;;;;;;;26.82;27.01;98798.59;107756;1254;67724;-62
2023/07/03 08:42:47;;;;;;;8.50;2.80;;;;;;;27.06;26.75;98798.39;106230;1254;72966;-65
2023/07/03 08:45:43;;;;;;;9.20;3.30;;;;;;;27.24;26.63;98805.86;105934;1260;59215;-65
2023/07/03 08:48:33;;;;;;;8.20;2.90;;;;;;;27.40;26.29;98810.13;109065;1254;60126;-63
2023/07/03 08:51:26;;;;;;;8.70;2.60;;;;;;;27.64;25.70;98815.95;108948;1255;72075;-62
2023/07/03 08:54:21;;;;;;;11.20;2.90;;;;;;;28.02;25.32;98815.02;106842;1256;69339;-62
2023/07/03 08:57:11;;;;;;;11.80;3.60;;;;;;;28.18;25.35;98816.70;106519;1257;72625;-63
2023/07/03 08:59:58;;;;;;;8.50;3.10;;;;;;;28.58;25.12;98812.34;106011;1256;59397;-66
2023/07/03 09:03:00;;;;;;;11.60;3.30;;;;;;;28.65;25.11;98813.09;105699;1257;60772;-66
2023/07/03 09:06:05;;;;;;;8.90;2.80;;;;;;;28.61;25.16;98816.35;105533;1257;72847;-63
2023/07/03 09:09:27;;;;;;;9.70;3.20;;;;;;;27.24;26.36;98828.48;106525;1257;68288;-63
2023/07/03 09:12:55;;;;;;;10.80;3.00;;;;;;;25.85;28.86;98829.16;106892;1256;72867;-65
2023/07/03 09:16:13;;;;;;;10.40;3.20;;;;;;;24.74;30.07;98833.41;105563;1263;59335;-65
2023/07/03 09:19:06;;;;;;;9.30;3.20;;;;;;;23.87;31.32;98836.85;105877;1263;61644;-64
2023/07/03 09:21:59;;;;;;;10.30;3.50;;;;;;;23.25;32.54;98836.48;105878;1265;72755;-62
2023/07/03 09:24:46;;;;;;;12.10;3.20;;;;;;;22.72;33.86;98840.70;105200;1263;67024;-65
2023/07/03 09:27:35;;;;;;;12.40;3.00;;;;;;;22.14;35.13;98859.80;106316;1262;74033;-61
2023/07/03 09:30:21;;;;;;;10.00;3.40;;;;;;;22.21;35.32;98853.86;104951;1263;59267;-66
2023/07/03 09:33:08;;;;;;;10.20;3.20;;;;;;;22.73;34.46;98840.63;105455;1268;60145;-66
2023/07/03 09:35:55;;;;;;;11.70;3.30;;;;;;;22.87;34.47;98847.18;107141;1267;72588;-65
2023/07/03 09:38:44;;;;;;;9.50;3.30;;;;;;;22.57;34.51;98844.64;105799;1263;68294;-64
2023/07/03 09:41:34;;;;;;;9.10;3.20;;;;;;;22.13;34.91;98845.27;105855;1262;72887;-65
2023/07/03 09:44:22;;;;;;;14.40;3.70;;;;;;;21.52;36.44;98841.55;105859;1263;59849;-63
2023/07/03 09:47:21;;;;;;;11.30;3.80;;;;;;;21.15;37.19;98860.00;105126;1268;59555;-66
2023/07/03 09:50:09;;;;;;;9.10;3.20;;;;;;;20.90;37.62;98860.14;105558;1263;72620;-68
2023/07/03 09:52:57;;;;;;;11.20;3.70;;;;;;;20.66;37.27;98861.40;106446;1256;66349;-67
2023/07/03 09:56:02;;;;;;;10.40;3.70;;;;;;;20.75;37.53;98854.52;105844;1259;72723;-66
2023/07/03 09:58:58;;;;;;;12.40;3.50;;;;;;;21.08;37.28;98852.17;106180;1256;59544;-64
2023/07/03 10:01:48;;;;;;;11.50;3.60;;;;;;;21.43;36.68;98856.05;106040;1254;60677;-64
2023/07/03 10:04:44;;;;;;;12.20;3.10;;;;;;;21.46;36.63;98854.50;105711;1261;72625;-64
2023/07/03 10:07:40;;;;;;;9.90;3.20;;;;;;;21.61;36.48;98864.15;105935;1254;67680;-64
2023/07/03 10:10:29;;;;;;;13.50;3.50;;;;;;;21.71;35.92;98857.24;105689;1255;71263;-65
2023/07/03 10:13:26;;;;;;;11.50;3.00;;;;;;;21.84;35.93;98860.50;105713;1257;59304;-64
2023/07/03 10:16:15;;;;;;;9.70;3.40;;;;;;;21.81;36.08;98865.77;105928;1259;61754;-63
2023/07/03 10:19:03;;;;;;;9.10;3.10;;;;;;;21.60;36.22;98874.40;106307;1253;71610;-65
2023/07/03 10:21:52;;;;;;;11.40;3.80;;;;;;;21.07;36.86;98875.89;105962;1259;69339;-63
2023/07/03 10:24:41;;;;;;;10.80;3.60;;;;;;;20.58;37.31;98876.34;106089;1254;74342;-62
2023/07/03 10:27:29;;;;;;;10.80;3.00;;;;;;;20.06;38.53;98886.42;105918;1259;59250;-63
2023/07/03 10:30:18;;;;;;;10.40;2.90;;;;;;;19.59;39.51;98887.08;107310;1253;61732;-64
2023/07/03 10:33:14;;;;;;;9.40;3.30;;;;;;;19.43;40.01;98897.69;105774;1253;70740;-64
2023/07/03 10:36:07;;;;;;;9.30;3.30;;;;;;;19.25;40.34;98894.64;106245;1253;69394;-65
2023/07/03 10:39:19;;;;;;;13.50;3.60;;;;;;;19.09;40.59;98899.37;106057;1258;73139;-64
2023/07/03 10:42:29;;;;;;;11.10;3.60;;;;;;;19.04;40.87;98899.19;105853;1254;59215;-68
2023/07/03 10:45:17;;;;;;;12.60;3.70;;;;;;;19.08;41.33;98896.70;105942;1258;60837;-69
2023/07/03 10:48:14;;;;;;;15.50;3.60;;;;;;;19.19;41.40;98896.77;106244;1253;73888;-67
2023/07/03 10:51:23;;;;;;;10.30;3.70;;;;;;;20.65;39.41;98897.19;105973;1257;68437;-70
2023/07/03 10:54:38;;;;;;;11.00;3.50;;;;;;;21.60;37.50;98894.86;105883;1253;72335;-69
2023/07/03 10:57:48;;;;;;;11.70;3.60;;;;;;;22.32;36.14;98887.20;105927;1258;59209;-69
2023/07/03 11:01:27;;;;;;;12.40;3.40;;;;;;;23.11;35.49;98885.31;105644;1260;60351;-68
2023/07/03 11:04:25;;;;;;;11.90;3.60;;;;;;;24.03;32.63;98885.33;106481;1256;73613;-69
2023/07/03 11:07:55;;;;;;;11.80;3.60;;;;;;;24.63;31.33;98881.89;105999;1257;69311;-70
2023/07/03 11:10:58;;;;;;;12.10;4.00;;;;;;;23.93;31.62;98884.03;105940;1257;71299;-67
2023/07/03 11:13:58;;;;;;;11.50;3.70;;;;;;;23.95;31.69;98874.92;106065;1254;59216;-69
2023/07/03 11:17:38;;;;;;;12.60;3.80;;;;;;;23.71;31.80;98893.95;105955;1256;60877;-71
2023/07/03 11:21:12;;;;;;;9.90;3.20;;;;;;;23.03;32.92;98896.80;105575;1262;72982;-66
2023/07/03 11:24:30;;;;;;;10.60;3.70;;;;;;;22.82;33.69;98905.94;105345;1265;67204;-70
2023/07/03 11:27:46;;;;;;;11.40;4.20;;;;;;;22.68;33.98;98904.31;105286;1263;71301;-65
2023/07/03 11:30:42;;;;;;;13.00;4.00;;;;;;;22.43;34.44;98908.31;105553;1263;59417;-66
2023/07/03 11:33:31;;;;;;;12.70;3.80;;;;;;;22.81;33.88;98895.98;105618;1262;59398;-69
2023/07/03 11:36:54;;;;;;;11.50;4.30;;;;;;;23.00;33.80;98890.06;105370;1262;72752;-69
2023/07/03 11:39:50;;;;;;;13.00;4.30;;;;;;;23.20;33.81;98896.29;105365;1271;69409;-67
2023/07/03 11:42:37;;;;;;;11.00;3.90;;;;;;;22.92;34.32;98906.69;105132;1268;74206;-66
2023/07/03 11:45:27;;;;;;;10.20;3.90;;;;;;;22.74;34.06;98903.70;104982;1271;60072;-67
2023/07/03 11:48:33;;;;;;;12.70;3.70;;;;;;;22.33;35.38;98907.33;105044;1272;59561;-66
2023/07/03 11:51:34;;;;;;;10.10;3.70;;;;;;;22.01;36.04;98917.42;105115;1273;71465;-67
2023/07/03 11:54:26;;;;;;;12.50;3.40;;;;;;;21.66;36.79;98920.71;105710;1260;70099;-64
2023/07/03 11:57:45;;;;;;;10.50;3.50;;;;;;;21.47;37.45;98919.61;105635;1263;72808;-66
2023/07/03 12:00:42;;;;;;;9.70;3.70;;;;;;;21.50;37.82;98926.28;105817;1261;60306;-67
2023/07/03 12:03:49;;;;;;;9.90;3.80;;;;;;;21.46;38.17;98929.29;105469;1266;59541;-64
2023/07/03 12:06:40;;;;;;;11.50;3.80;;;;;;;21.32;38.66;98926.69;106023;1265;70660;-66
2023/07/03 12:09:31;;;;;;;11.90;3.60;;;;;;;21.25;38.68;98935.59;105992;1262;69461;-63
2023/07/03 12:12:26;;;;;;;12.20;3.90;;;;;;;21.00;39.09;98932.92;105793;1264;73997;-65
2023/07/03 12:15:13;;;;;;;13.50;4.40;;;;;;;20.82;39.12;98930.17;106008;1260;59718;-67
2023/07/03 12:18:05;;;;;;;10.40;3.70;;;;;;;20.81;39.26;98937.80;106125;1258;59835;-67
2023/07/03 12:21:00;;;;;;;9.80;3.60;;;;;;;20.84;38.81;98937.53;106115;1262;72341;-63
2023/07/03 12:23:48;;;;;;;10.50;3.70;;;;;;;20.94;38.10;98937.08;105865;1260;67251;-66
2023/07/03 12:26:50;;;;;;;9.70;3.50;;;;;;;21.19;38.16;98937.70;105823;1262;73119;-66
2023/07/03 12:29:47;;;;;;;10.80;4.00;;;;;;;21.44;37.75;98928.19;105705;1256;59426;-67
2023/07/03 12:32:36;;;;;;;11.10;3.80;;;;;;;21.68;38.38;98934.86;106004;1260;60710;-70
2023/07/03 12:35:26;;;;;;;11.80;3.90;;;;;;;21.76;37.33;98925.17;105572;1257;72665;-66
2023/07/03 12:38:13;;;;;;;11.90;4.00;;;;;;;21.84;37.47;98925.88;105814;1262;68329;-67
2023/07/03 12:41:00;;;;;;;13.20;4.10;;;;;;;21.83;36.90;98934.46;106433;1256;71802;-65
2023/07/03 12:43:48;;;;;;;11.80;3.60;;;;;;;21.70;37.48;98934.73;106660;1256;59317;-66
2023/07/03 12:46:53;;;;;;;11.40;3.80;;;;;;;21.52;37.55;98933.67;106206;1262;59519;-68
2023/07/03 12:49:47;;;;;;;12.70;4.30;;;;;;;21.37;37.27;98937.23;105743;1257;71545;-65
2023/07/03 12:52:36;;;;;;;14.10;3.80;;;;;;;21.23;37.09;98944.55;105751;1259;68455;-65
2023/07/03 12:55:27;;;;;;;10.80;4.00;;;;;;;21.11;36.81;98950.23;106096;1260;73271;-68
2023/07/03 12:58:18;;;;;;;11.90;3.40;;;;;;;20.99;37.02;98952.56;105811;1254;59392;-70
2023/07/03 13:01:06;;;;;;;10.40;3.50;;;;;;;20.98;37.18;98958.70;106207;1254;60460;-68
2023/07/03 13:03:53;;;;;;;11.00;3.30;;;;;;;20.99;37.36;98962.18;106530;1255;72097;-71
2023/07/03 13:06:43;;;;;;;11.10;4.40;;;;;;;21.10;37.60;98964.63;106080;1257;66980;-66
2023/07/03 13:09:31;;;;;;;12.00;3.90;;;;;;;21.29;37.75;98967.38;105766;1259;72094;-67